Time;durP1;ratioP1;P1;durP2;ratioP2;P2;SDS_P1;SDS_P2;PMS_P1;PMS_P2;Temp;Humidity;BMP_temperature;BMP_pressure;BME280_temperature;BME280_humidity;BME280_pressure;Samples;Min_cycle;Max_cycle;Signal;HPM_P1;HPM_P2
2022/12/12 00:02:25;;;;;;;;;;;;;;;;;;5093344;28;1302;-73
2022/12/12 00:04:51;;;;;;;;;;;;;;;;;;5095652;28;854;-73
2022/12/12 00:07:17;;;;;;;;;;;;;;;;;;5093452;28;1972;-72
2022/12/12 00:09:43;;;;;;;;;;;;;;;;;;5093672;28;1296;-71
2022/12/12 00:12:09;;;;;;;;;;;;;;;;;;5092891;28;1276;-74
2022/12/12 00:14:35;;;;;;;;;;;;;;;;;;5093517;28;1167;-70
2022/12/12 00:17:02;;;;;;;;;;;;;;;;;;5095926;28;783;-71
2022/12/12 00:19:28;;;;;;;;;;;;;;;;;;5095347;28;1308;-73
2022/12/12 00:21:54;;;;;;;;;;;;;;;;;;5094013;28;1218;-73
2022/12/12 00:24:20;;;;;;;;;;;;;;;;;;5093130;28;1356;-73
2022/12/12 00:26:46;;;;;;;;;;;;;;;;;;5093244;28;1190;-73
2022/12/12 00:29:12;;;;;;;;;;;;;;;;;;5093298;28;1918;-69
2022/12/12 00:31:39;;;;;;;;;;;;;;;;;;5092527;28;1219;-70
2022/12/12 00:34:05;;;;;;;;;;;;;;;;;;5090923;28;1158;-73
2022/12/12 00:36:31;;;;;;;;;;;;;;;;;;5055977;28;1286;-72
2022/12/12 00:38:57;;;;;;;;;;;;;;;;;;5056152;28;1334;-73
2022/12/12 00:41:23;;;;;;;;;;;;;;;;;;5055454;28;1457;-72
2022/12/12 00:43:49;;;;;;;;;;;;;;;;;;5073738;28;861;-69
2022/12/12 00:46:16;;;;;;;;;;;;;;;;;;5055905;28;1287;-72
2022/12/12 00:48:42;;;;;;;;;;;;;;;;;;5055730;28;1914;-73
2022/12/12 00:51:08;;;;;;;;;;;;;;;;;;5055830;28;1166;-73
2022/12/12 00:53:34;;;;;;;;;;;;;;;;;;5055275;28;1197;-72
2022/12/12 00:56:00;;;;;;;;;;;;;;;;;;5056112;28;1177;-70
2022/12/12 00:58:26;;;;;;;;;;;;;;;;;;5055756;28;1329;-71
2022/12/12 01:00:53;;;;;;;;;;;;;;;;;;5055793;28;1096;-72
2022/12/12 01:03:19;;;;;;;;;;;;;;;;;;5054800;28;1137;-72
2022/12/12 01:05:45;;;;;;;;;;;;;;;;;;5055451;28;1123;-73
2022/12/12 01:08:11;;;;;;;;;;;;;;;;;;5055339;28;1910;-71
2022/12/12 01:10:37;;;;;;;;;;;;;;;;;;5055375;28;1152;-73
2022/12/12 01:13:04;;;;;;;;;;;;;;;;;;5072392;28;941;-72
2022/12/12 01:15:30;;;;;;;;;;;;;;;;;;5055282;28;973;-69
2022/12/12 01:17:56;;;;;;;;;;;;;;;;;;5073289;28;1321;-72
2022/12/12 01:20:22;;;;;;;;;;;;;;;;;;5055177;28;1144;-72
2022/12/12 01:22:49;;;;;;;;;;;;;;;;;;5054574;28;1419;-70
2022/12/12 01:25:15;;;;;;;;;;;;;;;;;;5057704;28;1696;-73
2022/12/12 01:27:41;;;;;;;;;;;;;;;;;;5091618;28;1901;-73
2022/12/12 01:30:07;;;;;;;;;;;;;;;;;;5091441;28;1407;-73
2022/12/12 01:32:33;;;;;;;;;;;;;;;;;;5089514;28;1180;-73
2022/12/12 01:35:00;;;;;;;;;;;;;;;;;;5089978;28;1247;-71
2022/12/12 01:37:26;;;;;;;;;;;;;;;;;;5091357;28;778;-71
2022/12/12 01:39:52;;;;;;;;;;;;;;;;;;5073008;28;1336;-73
2022/12/12 01:42:18;;;;;;;;;;;;;;;;;;5090304;28;960;-73
2022/12/12 01:44:44;;;;;;;;;;;;;;;;;;5072957;28;1167;-73
2022/12/12 01:47:10;;;;;;;;;;;;;;;;;;5073732;28;1987;-73
2022/12/12 01:49:37;;;;;;;;;;;;;;;;;;5074502;28;1320;-71
2022/12/12 01:52:03;;;;;;;;;;;;;;;;;;5073783;28;1811;-73
2022/12/12 01:54:29;;;;;;;;;;;;;;;;;;5074458;28;1331;-73
2022/12/12 01:56:55;;;;;;;;;;;;;;;;;;5074738;28;1273;-74
2022/12/12 01:59:21;;;;;;;;;;;;;;;;;;5092480;28;1308;-74
2022/12/12 02:01:47;;;;;;;;;;;;;;;;;;5074009;28;1302;-74
2022/12/12 02:04:14;;;;;;;;;;;;;;;;;;5056711;28;1416;-73
2022/12/12 02:06:40;;;;;;;;;;;;;;;;;;5054256;28;1259;-73
2022/12/12 02:09:06;;;;;;;;;;;;;;;;;;5054151;28;1918;-73
2022/12/12 02:11:32;;;;;;;;;;;;;;;;;;5053648;28;1187;-73
2022/12/12 02:13:58;;;;;;;;;;;;;;;;;;5054105;28;1454;-70
2022/12/12 02:16:25;;;;;;;;;;;;;;;;;;5054062;28;1242;-72
2022/12/12 02:18:51;;;;;;;;;;;;;;;;;;5054073;28;1416;-73
2022/12/12 02:21:17;;;;;;;;;;;;;;;;;;5053441;28;1112;-72
2022/12/12 02:23:43;;;;;;;;;;;;;;;;;;5053265;28;1203;-73
2022/12/12 02:26:09;;;;;;;;;;;;;;;;;;5071855;28;866;-73
2022/12/12 02:28:35;;;;;;;;;;;;;;;;;;5053825;28;1968;-70
2022/12/12 02:31:02;;;;;;;;;;;;;;;;;;5071714;28;791;-73
2022/12/12 02:33:28;;;;;;;;;;;;;;;;;;5053231;28;1211;-73
2022/12/12 02:35:54;;;;;;;;;;;;;;;;;;5053529;28;1346;-72
2022/12/12 02:38:20;;;;;;;;;;;;;;;;;;5053808;28;1359;-73
2022/12/12 02:40:46;;;;;;;;;;;;;;;;;;5053843;28;1127;-74
2022/12/12 02:43:12;;;;;;;;;;;;;;;;;;5052850;28;1250;-70
2022/12/12 02:45:39;;;;;;;;;;;;;;;;;;5053695;28;1317;-73
2022/12/12 02:48:05;;;;;;;;;;;;;;;;;;5053243;28;1918;-73
2022/12/12 02:50:31;;;;;;;;;;;;;;;;;;5053886;28;1306;-73
2022/12/12 02:52:57;;;;;;;;;;;;;;;;;;5052800;28;1270;-74
2022/12/12 02:55:23;;;;;;;;;;;;;;;;;;5053896;28;1271;-71
2022/12/12 02:57:49;;;;;;;;;;;;;;;;;;5054982;28;1345;-73
2022/12/12 03:00:16;;;;;;;;;;;;;;;;;;5055289;28;1128;-74
2022/12/12 03:02:42;;;;;;;;;;;;;;;;;;5055254;28;1173;-73
2022/12/12 03:07:52;;;;;;;;;;;;;;;;;;5071274;28;1921;-73
2022/12/12 03:10:19;;;;;;;;;;;;;;;;;;5053365;28;1315;-72
2022/12/12 03:12:47;;;;;;;;;;;;;;;;;;5052702;28;1220;-72
2022/12/12 03:15:13;;;;;;;;;;;;;;;;;;5053339;28;1258;-73
2022/12/12 03:17:40;;;;;;;;;;;;;;;;;;5053309;28;1269;-73
2022/12/12 03:20:06;;;;;;;;;;;;;;;;;;5053072;28;1494;-70
2022/12/12 03:22:32;;;;;;;;;;;;;;;;;;5052685;28;1421;-72
2022/12/12 03:24:58;;;;;;;;;;;;;;;;;;5071203;28;878;-74
2022/12/12 03:27:24;;;;;;;;;;;;;;;;;;5053320;28;1142;-73
2022/12/12 03:29:51;;;;;;;;;;;;;;;;;;5053095;28;1914;-73
2022/12/12 03:32:17;;;;;;;;;;;;;;;;;;5052454;28;1523;-73
2022/12/12 03:34:43;;;;;;;;;;;;;;;;;;5053239;28;1354;-71
2022/12/12 03:37:09;;;;;;;;;;;;;;;;;;5056975;28;1294;-73
2022/12/12 03:39:35;;;;;;;;;;;;;;;;;;5057200;28;1421;-73
2022/12/12 03:42:02;;;;;;;;;;;;;;;;;;5056134;28;1430;-70
2022/12/12 03:44:28;;;;;;;;;;;;;;;;;;5056922;28;1107;-71
2022/12/12 03:46:54;;;;;;;;;;;;;;;;;;5056905;28;1255;-71
2022/12/12 03:49:20;;;;;;;;;;;;;;;;;;5056425;28;1910;-74
2022/12/12 03:51:46;;;;;;;;;;;;;;;;;;5056096;28;1167;-73
2022/12/12 03:54:12;;;;;;;;;;;;;;;;;;5056581;28;1256;-73
2022/12/12 03:56:38;;;;;;;;;;;;;;;;;;5056760;28;1135;-70
2022/12/12 03:59:05;;;;;;;;;;;;;;;;;;5056643;28;1427;-74
2022/12/12 04:01:34;;;;;;;;;;;;;;;;;;5056012;28;1305;-74
2022/12/12 04:04:00;;;;;;;;;;;;;;;;;;5074452;28;874;-74
2022/12/12 04:06:26;;;;;;;;;;;;;;;;;;5056571;28;1258;-74
2022/12/12 04:14:20;;;;;;;;;;;;;;;;;;5058577;28;1619;-72
2022/12/12 04:16:46;;;;;;;;;;;;;;;;;;5056574;28;1183;-73
2022/12/12 04:19:13;;;;;;;;;;;;;;;;;;5074214;28;1383;-73
2022/12/12 04:24:23;;;;;;;;;;;;;;;;;;5056361;28;1549;-71
2022/12/12 04:26:48;;;;;;;;;;;;;;;;;;5056317;28;1167;-73
2022/12/12 04:29:14;;;;;;;;;;;;;;;;;;5055936;28;1921;-73
2022/12/12 04:31:41;;;;;;;;;;;;;;;;;;5055606;28;1109;-70
2022/12/12 04:34:07;;;;;;;;;;;;;;;;;;5055751;28;1014;-73
2022/12/12 04:36:33;;;;;;;;;;;;;;;;;;5055880;28;1144;-73
2022/12/12 04:38:59;;;;;;;;;;;;;;;;;;5055973;28;1336;-73
2022/12/12 04:41:25;;;;;;;;;;;;;;;;;;5085741;28;1698;-73
2022/12/12 04:43:51;;;;;;;;;;;;;;;;;;5093970;28;1077;-73
2022/12/12 04:46:18;;;;;;;;;;;;;;;;;;5092575;28;1227;-70
2022/12/12 04:48:44;;;;;;;;;;;;;;;;;;5092107;28;1914;-71
2022/12/12 04:51:11;;;;;;;;;;;;;;;;;;5074282;28;1154;-71
2022/12/12 04:53:37;;;;;;;;;;;;;;;;;;5055081;28;1289;-73
2022/12/12 04:56:03;;;;;;;;;;;;;;;;;;5055567;28;1249;-73
2022/12/12 04:58:29;;;;;;;;;;;;;;;;;;5055384;28;1344;-70
2022/12/12 05:00:55;;;;;;;;;;;;;;;;;;5055725;28;1217;-74
2022/12/12 05:03:22;;;;;;;;;;;;;;;;;;5072755;28;1012;-72
2022/12/12 05:05:48;;;;;;;;;;;;;;;;;;5055642;28;1461;-74
2022/12/12 05:08:14;;;;;;;;;;;;;;;;;;5055113;28;1942;-73
2022/12/12 05:10:40;;;;;;;;;;;;;;;;;;5055270;28;1199;-73
2022/12/12 05:13:06;;;;;;;;;;;;;;;;;;5054367;28;1132;-73
2022/12/12 05:15:32;;;;;;;;;;;;;;;;;;5073327;28;885;-71
2022/12/12 05:17:59;;;;;;;;;;;;;;;;;;5055101;28;1322;-73
2022/12/12 05:20:25;;;;;;;;;;;;;;;;;;5055181;28;1108;-73
2022/12/12 05:22:51;;;;;;;;;;;;;;;;;;5056807;28;1580;-74
2022/12/12 05:25:17;;;;;;;;;;;;;;;;;;5053344;28;1375;-73
2022/12/12 05:27:43;;;;;;;;;;;;;;;;;;5065069;28;1233;-72
2022/12/12 05:30:09;;;;;;;;;;;;;;;;;;5036886;28;1918;-73
2022/12/12 05:32:36;;;;;;;;;;;;;;;;;;5053958;28;1583;-73
2022/12/12 05:35:02;;;;;;;;;;;;;;;;;;5071631;28;1327;-73
2022/12/12 05:37:28;;;;;;;;;;;;;;;;;;5053781;28;1428;-73
2022/12/12 05:39:54;;;;;;;;;;;;;;;;;;5073128;28;1486;-73
2022/12/12 05:42:20;;;;;;;;;;;;;;;;;;5054048;28;1170;-73
2022/12/12 05:44:46;;;;;;;;;;;;;;;;;;5053309;28;1491;-73
2022/12/12 05:47:13;;;;;;;;;;;;;;;;;;5051982;28;1283;-73
2022/12/12 05:49:39;;;;;;;;;;;;;;;;;;5037721;28;1976;-74
2022/12/12 05:52:05;;;;;;;;;;;;;;;;;;5053516;28;1296;-72
2022/12/12 05:57:05;;;;;;;;;;;;;;;;;;5049696;28;1517;-77
2022/12/12 05:59:33;;;;;;;;;;;;;;;;;;5052167;28;1182;-77
2022/12/12 06:01:59;;;;;;;;;;;;;;;;;;5052729;28;902;-77
2022/12/12 06:04:25;;;;;;;;;;;;;;;;;;5053193;28;1208;-77
2022/12/12 06:06:52;;;;;;;;;;;;;;;;;;5053362;28;1542;-79
2022/12/12 06:09:18;;;;;;;;;;;;;;;;;;5053172;28;1922;-78
2022/12/12 06:11:44;;;;;;;;;;;;;;;;;;5052649;28;1347;-77
2022/12/12 06:14:10;;;;;;;;;;;;;;;;;;5056227;28;1254;-78
2022/12/12 06:16:36;;;;;;;;;;;;;;;;;;5069019;28;1411;-80
2022/12/12 06:19:03;;;;;;;;;;;;;;;;;;5053748;28;932;-79
2022/12/12 06:21:29;;;;;;;;;;;;;;;;;;5067988;28;1132;-78
2022/12/12 06:23:55;;;;;;;;;;;;;;;;;;5069953;28;1111;-79
2022/12/12 06:26:22;;;;;;;;;;;;;;;;;;5046673;28;1765;-77
2022/12/12 06:28:48;;;;;;;;;;;;;;;;;;5017531;28;1914;-79
2022/12/12 06:31:14;;;;;;;;;;;;;;;;;;5065382;28;1358;-81
2022/12/12 06:33:41;;;;;;;;;;;;;;;;;;5053204;28;1143;-79
2022/12/12 06:36:07;;;;;;;;;;;;;;;;;;5053182;28;1406;-79
2022/12/12 06:38:33;;;;;;;;;;;;;;;;;;5047971;28;1431;-78
2022/12/12 06:40:59;;;;;;;;;;;;;;;;;;5064373;28;1245;-79
2022/12/12 06:43:25;;;;;;;;;;;;;;;;;;5034910;28;1121;-80
2022/12/12 06:45:51;;;;;;;;;;;;;;;;;;5035526;28;1332;-79
2022/12/12 06:48:18;;;;;;;;;;;;;;;;;;5054902;28;1526;-80
2022/12/12 06:50:44;;;;;;;;;;;;;;;;;;5048075;28;1922;-79
2022/12/12 06:53:10;;;;;;;;;;;;;;;;;;5067713;28;1229;-78
2022/12/12 06:55:36;;;;;;;;;;;;;;;;;;5046121;28;1618;-79
2022/12/12 06:58:02;;;;;;;;;;;;;;;;;;5062426;28;1570;-79
2022/12/12 07:00:28;;;;;;;;;;;;;;;;;;5063642;28;1539;-79
2022/12/12 07:02:55;;;;;;;;;;;;;;;;;;5047420;28;1280;-79
2022/12/12 07:05:21;;;;;;;;;;;;;;;;;;5044469;28;1465;-78
2022/12/12 07:07:47;;;;;;;;;;;;;;;;;;5065293;28;1459;-78
2022/12/12 07:10:13;;;;;;;;;;;;;;;;;;5063468;28;1996;-78
2022/12/12 07:12:39;;;;;;;;;;;;;;;;;;5059169;28;1273;-78
2022/12/12 07:15:06;;;;;;;;;;;;;;;;;;5047783;28;1336;-78
2022/12/12 07:17:32;;;;;;;;;;;;;;;;;;5015108;28;1292;-79
2022/12/12 07:19:58;;;;;;;;;;;;;;;;;;5047743;28;1142;-78
2022/12/12 07:22:25;;;;;;;;;;;;;;;;;;5048450;28;1531;-76
2022/12/12 07:24:51;;;;;;;;;;;;;;;;;;5057891;28;1558;-78
2022/12/12 07:27:17;;;;;;;;;;;;;;;;;;5067075;28;1333;-79
2022/12/12 07:29:43;;;;;;;;;;;;;;;;;;5063033;28;1989;-82
2022/12/12 07:32:09;;;;;;;;;;;;;;;;;;5066132;28;1461;-80
2022/12/12 07:34:36;;;;;;;;;;;;;;;;;;5063659;28;1507;-79
2022/12/12 07:37:02;;;;;;;;;;;;;;;;;;5064120;28;1489;-80
2022/12/12 07:39:28;;;;;;;;;;;;;;;;;;5061095;28;1231;-80
2022/12/12 07:41:54;;;;;;;;;;;;;;;;;;5066039;28;1453;-78
2022/12/12 07:44:20;;;;;;;;;;;;;;;;;;5065896;28;1385;-80
2022/12/12 07:46:47;;;;;;;;;;;;;;;;;;5066868;28;1405;-77
2022/12/12 07:49:13;;;;;;;;;;;;;;;;;;5064078;28;2276;-78
2022/12/12 07:51:39;;;;;;;;;;;;;;;;;;5045520;28;1451;-78
2022/12/12 07:54:05;;;;;;;;;;;;;;;;;;5063121;28;1722;-79
2022/12/12 07:56:31;;;;;;;;;;;;;;;;;;5049726;28;1465;-79
2022/12/12 07:58:57;;;;;;;;;;;;;;;;;;5033094;28;1434;-79
2022/12/12 08:01:24;;;;;;;;;;;;;;;;;;5050981;28;1416;-79
2022/12/12 08:03:50;;;;;;;;;;;;;;;;;;5033355;28;1133;-79
2022/12/12 08:06:16;;;;;;;;;;;;;;;;;;5050142;28;1310;-78
2022/12/12 08:08:42;;;;;;;;;;;;;;;;;;5052123;28;1004;-78
2022/12/12 08:11:08;;;;;;;;;;;;;;;;;;5052123;28;1917;-79
2022/12/12 08:13:35;;;;;;;;;;;;;;;;;;5046291;28;1396;-79
2022/12/12 08:16:01;;;;;;;;;;;;;;;;;;5031591;28;1457;-79
2022/12/12 08:18:27;;;;;;;;;;;;;;;;;;5064914;28;1423;-78
2022/12/12 08:20:53;;;;;;;;;;;;;;;;;;5064768;28;1459;-79
2022/12/12 08:23:20;;;;;;;;;;;;;;;;;;5047462;28;1239;-79
2022/12/12 08:25:46;;;;;;;;;;;;;;;;;;5054068;28;1345;-78
2022/12/12 08:28:12;;;;;;;;;;;;;;;;;;5036297;28;1213;-79
2022/12/12 08:30:39;;;;;;;;;;;;;;;;;;5036661;28;1976;-78
2022/12/12 08:33:06;;;;;;;;;;;;;;;;;;5028008;28;1167;-79
2022/12/12 08:35:32;;;;;;;;;;;;;;;;;;5037008;28;1440;-77
2022/12/12 08:37:58;;;;;;;;;;;;;;;;;;5054000;28;1381;-78
2022/12/12 08:40:24;;;;;;;;;;;;;;;;;;5051526;28;1708;-78
2022/12/12 08:42:50;;;;;;;;;;;;;;;;;;5032089;28;1183;-78
2022/12/12 08:45:16;;;;;;;;;;;;;;;;;;5055467;28;1320;-77
2022/12/12 08:47:43;;;;;;;;;;;;;;;;;;5036128;28;1183;-79
2022/12/12 08:50:09;;;;;;;;;;;;;;;;;;5032340;28;1919;-79
2022/12/12 08:52:36;;;;;;;;;;;;;;;;;;5070531;28;1225;-79
2022/12/12 08:55:03;;;;;;;;;;;;;;;;;;5070774;28;1407;-78
2022/12/12 08:57:29;;;;;;;;;;;;;;;;;;5078256;28;1156;-78
2022/12/12 08:59:55;;;;;;;;;;;;;;;;;;5069226;28;1482;-76
2022/12/12 09:02:21;;;;;;;;;;;;;;;;;;5060926;28;1479;-78
2022/12/12 09:04:47;;;;;;;;;;;;;;;;;;5051145;28;1496;-79
2022/12/12 09:07:13;;;;;;;;;;;;;;;;;;5054565;28;1323;-79
2022/12/12 09:09:39;;;;;;;;;;;;;;;;;;5038434;28;1967;-79
2022/12/12 09:12:06;;;;;;;;;;;;;;;;;;5066558;28;1455;-78
2022/12/12 09:14:32;;;;;;;;;;;;;;;;;;5036684;28;1294;-78
2022/12/12 09:16:58;;;;;;;;;;;;;;;;;;5035846;28;1223;-78
2022/12/12 09:19:25;;;;;;;;;;;;;;;;;;5055428;28;777;-78
2022/12/12 09:21:51;;;;;;;;;;;;;;;;;;5048035;28;1408;-78
2022/12/12 09:24:17;;;;;;;;;;;;;;;;;;5056129;28;1162;-78
2022/12/12 09:26:43;;;;;;;;;;;;;;;;;;5068451;28;1445;-77
2022/12/12 09:29:10;;;;;;;;;;;;;;;;;;5028929;28;1906;-78
2022/12/12 09:31:36;;;;;;;;;;;;;;;;;;5047547;28;1424;-79
2022/12/12 09:34:02;;;;;;;;;;;;;;;;;;5049411;28;1461;-79
2022/12/12 09:36:28;;;;;;;;;;;;;;;;;;5069930;28;1478;-79
2022/12/12 09:38:54;;;;;;;;;;;;;;;;;;5065322;28;1375;-79
2022/12/12 09:41:20;;;;;;;;;;;;;;;;;;5060584;28;1455;-78
2022/12/12 09:43:47;;;;;;;;;;;;;;;;;;5055258;28;1423;-78
2022/12/12 09:46:13;;;;;;;;;;;;;;;;;;5038594;28;1515;-78
2022/12/12 09:48:39;;;;;;;;;;;;;;;;;;5069252;28;1272;-77
2022/12/12 09:51:06;;;;;;;;;;;;;;;;;;5055532;28;1914;-78
2022/12/12 09:53:32;;;;;;;;;;;;;;;;;;5053741;28;1585;-79
2022/12/12 09:55:58;;;;;;;;;;;;;;;;;;5057147;28;1483;-80
2022/12/12 09:58:24;;;;;;;;;;;;;;;;;;5052864;28;1118;-78
2022/12/12 10:00:51;;;;;;;;;;;;;;;;;;5035631;28;1357;-78
2022/12/12 10:03:17;;;;;;;;;;;;;;;;;;5058154;28;1428;-78
2022/12/12 10:05:43;;;;;;;;;;;;;;;;;;5047529;28;1385;-77
2022/12/12 10:08:09;;;;;;;;;;;;;;;;;;5052588;28;1594;-79
2022/12/12 10:10:35;;;;;;;;;;;;;;;;;;5064097;28;1981;-81
2022/12/12 10:13:01;;;;;;;;;;;;;;;;;;5054944;28;886;-77
2022/12/12 10:15:28;;;;;;;;;;;;;;;;;;5073465;28;1515;-79
2022/12/12 10:17:54;;;;;;;;;;;;;;;;;;5066968;28;1420;-78
2022/12/12 10:20:20;;;;;;;;;;;;;;;;;;5068894;28;1221;-78
2022/12/12 10:22:46;;;;;;;;;;;;;;;;;;5067336;28;1373;-77
2022/12/12 10:25:12;;;;;;;;;;;;;;;;;;5068497;28;1324;-77
2022/12/12 10:27:38;;;;;;;;;;;;;;;;;;5067818;28;1403;-78
2022/12/12 10:30:05;;;;;;;;;;;;;;;;;;5064055;28;1981;-78
2022/12/12 10:32:31;;;;;;;;;;;;;;;;;;5034236;28;1245;-78
2022/12/12 10:34:57;;;;;;;;;;;;;;;;;;5034081;28;1393;-77
2022/12/12 10:37:23;;;;;;;;;;;;;;;;;;5034183;28;1482;-77
2022/12/12 10:39:49;;;;;;;;;;;;;;;;;;5046429;28;1628;-77
2022/12/12 10:42:16;;;;;;;;;;;;;;;;;;5051547;28;1182;-77
2022/12/12 10:44:42;;;;;;;;;;;;;;;;;;5033479;28;1333;-77
2022/12/12 10:47:09;;;;;;;;;;;;;;;;;;5037249;28;1452;-80
2022/12/12 10:49:35;;;;;;;;;;;;;;;;;;5068013;28;1975;-77
2022/12/12 10:52:01;;;;;;;;;;;;;;;;;;5066664;28;1294;-78
2022/12/12 10:54:27;;;;;;;;;;;;;;;;;;5067564;28;1703;-78
2022/12/12 10:56:54;;;;;;;;;;;;;;;;;;5038375;28;1497;-76
2022/12/12 10:59:20;;;;;;;;;;;;;;;;;;5052464;28;1468;-79
2022/12/12 11:01:46;;;;;;;;;;;;;;;;;;5030575;28;1626;-79
2022/12/12 11:04:12;;;;;;;;;;;;;;;;;;5058973;28;1306;-77
2022/12/12 11:06:38;;;;;;;;;;;;;;;;;;5067741;28;1286;-78
2022/12/12 11:09:04;;;;;;;;;;;;;;;;;;5069574;28;1146;-79
2022/12/12 11:11:31;;;;;;;;;;;;;;;;;;5066417;28;1968;-79
2022/12/12 11:13:59;;;;;;;;;;;;;;;;;;5068698;28;1365;-79
2022/12/12 11:16:25;;;;;;;;;;;;;;;;;;5070097;28;1471;-78
2022/12/12 11:18:51;;;;;;;;;;;;;;;;;;5059444;28;1423;-77
2022/12/12 11:21:17;;;;;;;;;;;;;;;;;;5051936;28;1197;-76
2022/12/12 11:23:43;;;;;;;;;;;;;;;;;;5067324;28;1303;-77
2022/12/12 11:26:10;;;;;;;;;;;;;;;;;;5064502;28;2299;-78
2022/12/12 11:28:36;;;;;;;;;;;;;;;;;;5016427;28;1160;-77
2022/12/12 11:31:02;;;;;;;;;;;;;;;;;;5050920;28;1946;-79
2022/12/12 11:33:30;;;;;;;;;;;;;;;;;;5062956;28;1183;-77
2022/12/12 11:35:56;;;;;;;;;;;;;;;;;;5049964;28;1689;-78
2022/12/12 11:38:22;;;;;;;;;;;;;;;;;;5038626;28;1582;-78
2022/12/12 11:40:48;;;;;;;;;;;;;;;;;;5067072;28;1226;-76
2022/12/12 11:43:14;;;;;;;;;;;;;;;;;;5065948;28;1148;-77
2022/12/12 11:45:40;;;;;;;;;;;;;;;;;;5066511;28;1455;-79
2022/12/12 11:48:07;;;;;;;;;;;;;;;;;;5049199;28;1410;-80
2022/12/12 11:50:33;;;;;;;;;;;;;;;;;;5066274;28;1917;-79
2022/12/12 11:53:00;;;;;;;;;;;;;;;;;;5065851;28;1191;-79
2022/12/12 11:55:26;;;;;;;;;;;;;;;;;;5066953;28;1491;-78
2022/12/12 11:57:52;;;;;;;;;;;;;;;;;;5045590;28;1458;-79
2022/12/12 12:00:18;;;;;;;;;;;;;;;;;;5069471;28;1279;-78
2022/12/12 12:02:44;;;;;;;;;;;;;;;;;;5090165;22;4213;-72
2022/12/12 12:05:11;;;;;;;;;;;;;;;;;;5055864;28;1198;-73
2022/12/12 12:07:37;;;;;;;;;;;;;;;;;;5046541;28;1470;-73
2022/12/12 12:10:03;;;;;;;;;;;;;;;;;;5071322;28;1914;-72
2022/12/12 12:12:29;;;;;;;;;;;;;;;;;;5043103;28;1383;-72
2022/12/12 12:14:55;;;;;;;;;;;;;;;;;;5053930;28;1346;-72
2022/12/12 12:17:21;;;;;;;;;;;;;;;;;;5062577;28;1431;-74
2022/12/12 12:19:48;;;;;;;;;;;;;;;;;;5070593;28;1494;-73
2022/12/12 12:22:14;;;;;;;;;;;;;;;;;;5089410;28;1335;-73
2022/12/12 12:24:40;;;;;;;;;;;;;;;;;;5074676;28;845;-71
2022/12/12 12:27:06;;;;;;;;;;;;;;;;;;5085400;28;1430;-71
2022/12/12 12:29:32;;;;;;;;;;;;;;;;;;5060084;28;1399;-71
2022/12/12 12:31:58;;;;;;;;;;;;;;;;;;5082695;28;1918;-74
2022/12/12 12:34:25;;;;;;;;;;;;;;;;;;5067106;28;1140;-74
2022/12/12 12:36:51;;;;;;;;;;;;;;;;;;5061583;28;1252;-74
2022/12/12 12:39:17;;;;;;;;;;;;;;;;;;5062526;28;1261;-74
2022/12/12 12:41:43;;;;;;;;;;;;;;;;;;5080064;28;1360;-74
2022/12/12 12:44:09;;;;;;;;;;;;;;;;;;5072449;28;1285;-74
2022/12/12 12:46:36;;;;;;;;;;;;;;;;;;5064208;28;1127;-73
2022/12/12 12:49:02;;;;;;;;;;;;;;;;;;5055480;28;1250;-73
